Time;durP1;ratioP1;P1;durP2;ratioP2;P2;SDS_P1;SDS_P2;PMS_P1;PMS_P2;Temp;Humidity;BMP_temperature;BMP_pressure;BME280_temperature;BME280_humidity;BME280_pressure;Samples;Min_cycle;Max_cycle;Signal;HPM_P1;HPM_P2
2024/01/19 00:01:57;;;;;;;16.77;9.52;;;;;;;;;;10468994;28;20044;-80
2024/01/19 00:07:02;;;;;;;15.65;8.10;;;;;;;;;;10452508;28;20059;-79
2024/01/19 00:12:06;;;;;;;16.38;8.77;;;;;;;;;;10459628;28;20044;-79
2024/01/19 00:17:10;;;;;;;13.50;7.82;;;;;;;;;;10428741;28;20053;-79
2024/01/19 00:22:15;;;;;;;14.95;6.93;;;;;;;;;;10454896;28;20068;-79
2024/01/19 00:27:18;;;;;;;14.02;6.78;;;;;;;;;;10465796;28;20047;-79
2024/01/19 00:32:22;;;;;;;11.13;7.15;;;;;;;;;;10451510;28;20045;-79
2024/01/19 00:37:27;;;;;;;13.13;7.43;;;;;;;;;;10442128;28;20070;-79
2024/01/19 00:42:30;;;;;;;12.25;7.72;;;;;;;;;;10434362;28;20041;-79
2024/01/19 00:47:34;;;;;;;12.90;7.97;;;;;;;;;;10429715;28;20093;-79
2024/01/19 00:52:40;;;;;;;17.08;8.60;;;;;;;;;;10433712;28;20052;-79
2024/01/19 00:57:44;;;;;;;14.25;8.18;;;;;;;;;;10451987;28;20057;-79
2024/01/19 01:02:48;;;;;;;12.50;7.72;;;;;;;;;;10455728;28;20045;-79
2024/01/19 01:07:53;;;;;;;12.65;8.00;;;;;;;;;;10449586;28;20049;-79
2024/01/19 01:12:57;;;;;;;13.05;7.75;;;;;;;;;;10440439;28;20037;-79
2024/01/19 01:18:01;;;;;;;11.27;6.43;;;;;;;;;;10454995;28;20076;-79
2024/01/19 01:23:06;;;;;;;11.90;6.53;;;;;;;;;;10453397;28;20060;-79
2024/01/19 01:28:09;;;;;;;11.27;6.35;;;;;;;;;;10434585;28;20049;-79
2024/01/19 01:33:13;;;;;;;9.70;5.75;;;;;;;;;;10431793;28;20048;-79
2024/01/19 01:38:18;;;;;;;8.93;5.10;;;;;;;;;;10427134;28;20037;-79
2024/01/19 01:43:23;;;;;;;7.82;5.47;;;;;;;;;;10463666;28;20086;-79
2024/01/19 01:48:27;;;;;;;9.43;5.90;;;;;;;;;;10467190;28;20037;-79
2024/01/19 01:53:33;;;;;;;10.23;6.05;;;;;;;;;;10469157;28;20253;-79
2024/01/19 01:58:37;;;;;;;9.65;5.88;;;;;;;;;;10468687;28;20040;-79
2024/01/19 02:03:41;;;;;;;10.52;6.53;;;;;;;;;;10446281;28;20049;-79
2024/01/19 02:08:46;;;;;;;11.07;6.28;;;;;;;;;;10464687;28;20053;-79
2024/01/19 02:13:49;;;;;;;9.90;6.43;;;;;;;;;;10440161;28;20841;-79
2024/01/19 02:18:55;;;;;;;10.27;6.07;;;;;;;;;;10442423;28;20060;-79
2024/01/19 02:24:02;;;;;;;11.75;7.45;;;;;;;;;;10455059;28;20040;-79
2024/01/19 02:29:08;;;;;;;10.38;6.50;;;;;;;;;;10440490;28;20494;-79
2024/01/19 02:34:11;;;;;;;14.60;6.90;;;;;;;;;;10458327;28;20048;-79
2024/01/19 02:39:15;;;;;;;13.88;8.27;;;;;;;;;;10464915;28;20105;-79
2024/01/19 02:44:20;;;;;;;12.95;7.10;;;;;;;;;;10468938;28;20510;-79
2024/01/19 02:49:23;;;;;;;12.07;7.07;;;;;;;;;;10456863;28;20337;-79
2024/01/19 02:54:27;;;;;;;13.35;7.70;;;;;;;;;;10438077;28;20044;-79
2024/01/19 02:59:32;;;;;;;10.98;7.00;;;;;;;;;;10432402;28;20700;-79
2024/01/19 03:04:35;;;;;;;13.32;6.97;;;;;;;;;;10433435;28;20049;-79
2024/01/19 03:09:39;;;;;;;12.52;7.20;;;;;;;;;;10452717;28;20045;-79
2024/01/19 03:14:44;;;;;;;12.73;7.38;;;;;;;;;;10468801;28;20055;-79
2024/01/19 03:19:47;;;;;;;17.52;7.95;;;;;;;;;;10450419;28;20059;-79
2024/01/19 03:24:51;;;;;;;16.73;7.90;;;;;;;;;;10457033;28;20056;-79
2024/01/19 03:29:56;;;;;;;9.57;6.13;;;;;;;;;;10455343;28;20099;-79
2024/01/19 03:35:00;;;;;;;14.10;6.70;;;;;;;;;;10469706;28;20132;-80
2024/01/19 03:40:06;;;;;;;16.15;9.32;;;;;;;;;;10475859;28;20053;-80
2024/01/19 03:45:11;;;;;;;12.48;7.13;;;;;;;;;;10470565;28;20056;-79
2024/01/19 03:50:15;;;;;;;15.45;8.48;;;;;;;;;;10447565;28;20049;-79
2024/01/19 03:55:18;;;;;;;15.65;8.15;;;;;;;;;;10460418;28;20049;-79
2024/01/19 04:00:23;;;;;;;13.35;7.47;;;;;;;;;;10448681;28;20049;-79
2024/01/19 04:05:27;;;;;;;16.10;7.38;;;;;;;;;;10433707;28;20052;-79
2024/01/19 04:10:30;;;;;;;14.93;7.93;;;;;;;;;;10463751;28;20045;-79
2024/01/19 04:15:35;;;;;;;14.80;7.75;;;;;;;;;;10457128;28;20409;-79
2024/01/19 04:20:39;;;;;;;12.57;6.63;;;;;;;;;;10464216;28;20421;-79
2024/01/19 04:25:42;;;;;;;9.15;5.63;;;;;;;;;;10463016;28;20136;-79
2024/01/19 04:30:47;;;;;;;12.02;6.00;;;;;;;;;;10459714;28;20040;-79
2024/01/19 04:35:51;;;;;;;13.90;6.38;;;;;;;;;;10452622;28;20052;-79
2024/01/19 04:40:55;;;;;;;13.45;6.32;;;;;;;;;;10453778;28;20071;-79
2024/01/19 04:46:00;;;;;;;10.20;6.50;;;;;;;;;;10452766;28;20425;-79
2024/01/19 04:51:05;;;;;;;11.73;6.63;;;;;;;;;;10455673;28;20064;-79
2024/01/19 04:56:09;;;;;;;18.35;9.63;;;;;;;;;;10449558;28;20052;-79
2024/01/19 05:01:14;;;;;;;18.70;10.45;;;;;;;;;;10458406;28;20063;-79
2024/01/19 05:06:17;;;;;;;23.40;11.23;;;;;;;;;;10435731;28;20069;-79
2024/01/19 05:11:22;;;;;;;19.75;9.75;;;;;;;;;;10500577;23;20505;-78
2024/01/19 05:16:26;;;;;;;15.05;8.23;;;;;;;;;;10496022;28;20056;-77
2024/01/19 05:21:30;;;;;;;14.88;8.18;;;;;;;;;;10500224;28;20056;-78
2024/01/19 05:26:34;;;;;;;18.95;9.10;;;;;;;;;;10515192;28;20052;-78
2024/01/19 05:31:39;;;;;;;19.80;9.85;;;;;;;;;;10504001;28;20044;-78
2024/01/19 05:36:42;;;;;;;15.17;8.03;;;;;;;;;;10505911;28;20040;-78
2024/01/19 05:41:46;;;;;;;14.65;8.77;;;;;;;;;;10512488;28;20107;-78
2024/01/19 05:46:50;;;;;;;13.85;8.20;;;;;;;;;;10507734;28;20084;-77
2024/01/19 05:51:54;;;;;;;19.90;9.87;;;;;;;;;;10521567;28;20052;-79
2024/01/19 05:56:57;;;;;;;19.92;10.70;;;;;;;;;;10532347;28;20386;-78
2024/01/19 06:02:02;;;;;;;13.07;7.75;;;;;;;;;;10497644;28;20044;-78
2024/01/19 06:07:06;;;;;;;12.70;7.18;;;;;;;;;;10503621;28;20045;-77
2024/01/19 06:12:10;;;;;;;17.65;8.48;;;;;;;;;;10510581;28;20314;-78
2024/01/19 06:17:17;;;;;;;17.85;9.48;;;;;;;;;;10503696;28;20048;-78
2024/01/19 06:22:20;;;;;;;19.85;11.07;;;;;;;;;;10496074;28;20059;-78
2024/01/19 06:27:24;;;;;;;19.25;10.70;;;;;;;;;;10525189;28;20044;-78
2024/01/19 06:32:29;;;;;;;16.63;9.57;;;;;;;;;;10507747;28;20044;-78
2024/01/19 06:37:33;;;;;;;16.23;9.05;;;;;;;;;;10509864;28;20052;-78
2024/01/19 06:42:37;;;;;;;15.25;8.27;;;;;;;;;;10519669;28;20040;-78
2024/01/19 06:47:42;;;;;;;12.80;7.53;;;;;;;;;;10503272;28;20052;-78
2024/01/19 06:52:45;;;;;;;12.60;6.97;;;;;;;;;;10505318;28;20040;-78
2024/01/19 06:57:49;;;;;;;15.82;7.78;;;;;;;;;;10509442;28;20041;-78
2024/01/19 07:02:54;;;;;;;15.38;7.43;;;;;;;;;;10503002;28;20053;-78
2024/01/19 07:07:58;;;;;;;14.88;7.90;;;;;;;;;;10501797;28;20127;-78
2024/01/19 07:13:01;;;;;;;23.83;9.55;;;;;;;;;;10518550;28;20041;-78
2024/01/19 07:18:07;;;;;;;24.02;10.18;;;;;;;;;;10498476;28;20048;-78
2024/01/19 07:23:11;;;;;;;27.50;12.95;;;;;;;;;;10497288;28;20047;-78
2024/01/19 07:28:15;;;;;;;19.58;10.10;;;;;;;;;;10498576;28;20041;-79
2024/01/19 07:33:19;;;;;;;19.35;9.57;;;;;;;;;;10501292;28;20406;-78
2024/01/19 07:38:24;;;;;;;18.98;9.18;;;;;;;;;;10506680;28;20075;-79
2024/01/19 07:43:28;;;;;;;19.38;9.20;;;;;;;;;;10511259;28;20150;-78
2024/01/19 07:48:33;;;;;;;16.25;8.57;;;;;;;;;;10509961;28;20053;-78
2024/01/19 07:53:36;;;;;;;14.73;8.02;;;;;;;;;;10497431;28;20538;-78
2024/01/19 07:58:42;;;;;;;15.88;8.05;;;;;;;;;;10505960;28;20053;-79
2024/01/19 08:03:47;;;;;;;15.68;8.70;;;;;;;;;;10501112;28;20051;-78
2024/01/19 08:08:51;;;;;;;27.60;12.48;;;;;;;;;;10495797;28;20048;-78
2024/01/19 08:13:54;;;;;;;37.22;14.52;;;;;;;;;;10495661;28;20048;-78
2024/01/19 08:19:00;;;;;;;34.35;15.07;;;;;;;;;;10496489;28;20065;-78
2024/01/19 08:24:03;;;;;;;25.67;12.07;;;;;;;;;;10497122;28;20052;-78
2024/01/19 08:29:07;;;;;;;19.52;9.25;;;;;;;;;;10516103;28;20044;-78
2024/01/19 08:34:14;;;;;;;33.75;14.93;;;;;;;;;;10490802;28;20048;-78
2024/01/19 08:39:17;;;;;;;33.97;14.23;;;;;;;;;;10490362;28;20114;-79
2024/01/19 08:44:21;;;;;;;31.35;15.18;;;;;;;;;;10496363;28;20040;-79
2024/01/19 08:49:26;;;;;;;23.10;12.48;;;;;;;;;;10506256;28;20121;-78
2024/01/19 08:54:30;;;;;;;19.05;9.65;;;;;;;;;;10496779;28;20059;-78
2024/01/19 08:59:33;;;;;;;19.90;10.38;;;;;;;;;;10506590;28;20528;-78
2024/01/19 09:04:38;;;;;;;27.17;11.15;;;;;;;;;;10501278;28;20457;-78
2024/01/19 09:09:42;;;;;;;27.03;12.90;;;;;;;;;;10504830;28;20103;-78
2024/01/19 09:14:46;;;;;;;28.23;13.48;;;;;;;;;;10507549;28;20865;-78
2024/01/19 09:19:52;;;;;;;23.38;11.50;;;;;;;;;;10503726;28;20059;-78
2024/01/19 09:24:55;;;;;;;20.58;11.52;;;;;;;;;;10518014;28;20041;-78
2024/01/19 09:29:59;;;;;;;17.50;9.50;;;;;;;;;;10504412;28;20607;-78
2024/01/19 09:35:04;;;;;;;16.10;8.55;;;;;;;;;;10514694;28;20055;-79
2024/01/19 09:40:09;;;;;;;13.85;7.55;;;;;;;;;;10538663;28;20060;-79
2024/01/19 09:45:17;;;;;;;17.20;8.25;;;;;;;;;;10509155;28;20049;-79
2024/01/19 09:50:27;;;;;;;14.13;8.45;;;;;;;;;;10506338;28;20491;-79
2024/01/19 09:55:31;;;;;;;16.65;9.20;;;;;;;;;;10500645;28;20405;-77
2024/01/19 10:00:34;;;;;;;13.25;7.65;;;;;;;;;;10502250;28;20513;-78
2024/01/19 10:05:40;;;;;;;11.57;6.63;;;;;;;;;;10508590;28;20532;-78
2024/01/19 10:10:44;;;;;;;8.25;5.18;;;;;;;;;;10515571;28;20131;-78
2024/01/19 10:15:48;;;;;;;11.85;7.13;;;;;;;;;;10516579;28;20040;-78
2024/01/19 10:20:54;;;;;;;10.85;6.40;;;;;;;;;;10493165;28;20125;-78
2024/01/19 10:26:14;;;;;;;8.52;5.60;;;;;;;;;;10490078;28;20048;-78
2024/01/19 10:31:21;;;;;;;13.05;8.38;;;;;;;;;;10500622;28;20048;-78
2024/01/19 10:36:26;;;;;;;12.73;7.35;;;;;;;;;;10511214;28;20054;-78
2024/01/19 10:41:30;;;;;;;16.93;10.47;;;;;;;;;;10504803;28;20083;-79
2024/01/19 10:46:34;;;;;;;13.68;8.35;;;;;;;;;;10494632;28;20489;-79
2024/01/19 10:51:40;;;;;;;11.35;7.03;;;;;;;;;;10503141;28;20606;-78
2024/01/19 10:56:44;;;;;;;10.82;6.32;;;;;;;;;;10509505;28;20056;-79
2024/01/19 11:01:58;;;;;;;13.18;7.25;;;;;;;;;;10496516;28;20060;-78
2024/01/19 11:07:05;;;;;;;10.23;5.20;;;;;;;;;;10509961;28;20051;-79
2024/01/19 11:12:12;;;;;;;9.63;5.82;;;;;;;;;;10446771;22;20113;-81
2024/01/19 11:17:17;;;;;;;9.25;5.78;;;;;;;;;;10410247;28;20045;-80
2024/01/19 11:22:21;;;;;;;15.55;8.40;;;;;;;;;;10412481;28;20053;-80
2024/01/19 11:27:31;;;;;;;16.00;8.15;;;;;;;;;;10433972;28;20072;-81
2024/01/19 11:32:35;;;;;;;12.43;6.40;;;;;;;;;;10412284;28;20049;-81
2024/01/19 11:37:44;;;;;;;12.70;6.13;;;;;;;;;;10408757;28;20042;-81
2024/01/19 11:42:48;;;;;;;8.40;5.40;;;;;;;;;;10405884;28;20736;-81
2024/01/19 11:47:52;;;;;;;9.73;5.72;;;;;;;;;;10407327;28;20057;-80
2024/01/19 11:52:57;;;;;;;11.55;6.07;;;;;;;;;;10406179;28;20576;-81
2024/01/19 11:58:38;;;;;;;7.00;4.20;;;;;;;;;;10397760;28;20396;-81
2024/01/19 12:03:42;;;;;;;6.43;4.18;;;;;;;;;;10401564;28;20045;-81
2024/01/19 12:09:00;;;;;;;7.97;4.18;;;;;;;;;;10407540;28;20045;-81
2024/01/19 12:14:06;;;;;;;7.65;4.70;;;;;;;;;;10401958;28;20042;-81
2024/01/19 12:19:11;;;;;;;6.90;4.18;;;;;;;;;;10405267;28;20461;-81
2024/01/19 12:24:20;;;;;;;9.18;5.30;;;;;;;;;;10404177;28;20519;-81
2024/01/19 12:29:31;;;;;;;9.45;5.30;;;;;;;;;;10403866;28;20049;-81
2024/01/19 12:34:34;;;;;;;12.85;6.22;;;;;;;;;;10411133;28;20052;-81
2024/01/19 12:39:39;;;;;;;21.17;9.35;;;;;;;;;;10403690;28;20051;-81
2024/01/19 12:44:42;;;;;;;17.00;9.27;;;;;;;;;;10402783;28;20064;-81
2024/01/19 12:49:47;;;;;;;12.88;6.85;;;;;;;;;;10403620;28;20418;-81
2024/01/19 12:54:52;;;;;;;9.98;5.32;;;;;;;;;;10404843;28;20056;-81
2024/01/19 13:00:10;;;;;;;11.75;7.22;;;;;;;;;;10399777;28;20045;-81
2024/01/19 13:05:20;;;;;;;12.07;6.13;;;;;;;;;;10408994;28;20048;-81
2024/01/19 13:10:25;;;;;;;10.80;6.45;;;;;;;;;;10403870;28;20058;-81
2024/01/19 13:15:32;;;;;;;10.98;6.57;;;;;;;;;;10405666;28;20064;-81
2024/01/19 13:20:35;;;;;;;15.13;7.28;;;;;;;;;;10413655;28;20033;-81
2024/01/19 13:25:40;;;;;;;13.32;7.22;;;;;;;;;;10403861;28;20038;-81
2024/01/19 13:30:47;;;;;;;11.07;6.30;;;;;;;;;;10401266;28;20053;-81
2024/01/19 13:35:51;;;;;;;14.82;7.40;;;;;;;;;;10401289;28;20053;-81
2024/01/19 13:40:56;;;;;;;11.65;7.20;;;;;;;;;;10398375;28;20068;-81
2024/01/19 13:46:01;;;;;;;14.07;8.10;;;;;;;;;;10405156;28;20042;-81
2024/01/19 13:51:05;;;;;;;15.43;7.63;;;;;;;;;;10405480;28;20457;-81
2024/01/19 13:56:10;;;;;;;9.85;5.80;;;;;;;;;;10396466;28;20054;-81
2024/01/19 14:01:13;;;;;;;12.40;7.50;;;;;;;;;;10409342;28;20045;-81
2024/01/19 14:06:17;;;;;;;11.10;5.70;;;;;;;;;;10410419;28;20588;-81
2024/01/19 14:11:22;;;;;;;11.30;6.60;;;;;;;;;;10409756;28;20053;-81
2024/01/19 14:16:26;;;;;;;10.20;5.95;;;;;;;;;;10409817;28;20042;-81
2024/01/19 14:21:29;;;;;;;11.05;5.78;;;;;;;;;;10405583;28;20052;-81
2024/01/19 14:26:36;;;;;;;14.48;7.13;;;;;;;;;;10408679;28;20084;-81
2024/01/19 14:31:40;;;;;;;12.43;6.97;;;;;;;;;;10422188;28;20060;-81
2024/01/19 14:36:48;;;;;;;10.95;6.40;;;;;;;;;;10409443;28;20537;-81
2024/01/19 14:41:53;;;;;;;8.73;5.72;;;;;;;;;;10407067;28;20057;-81
2024/01/19 14:46:57;;;;;;;13.85;7.03;;;;;;;;;;10404888;28;20104;-81
2024/01/19 14:52:00;;;;;;;12.55;6.95;;;;;;;;;;10407742;28;20064;-81
2024/01/19 14:57:06;;;;;;;13.70;6.93;;;;;;;;;;10408578;28;20670;-81
2024/01/19 15:02:09;;;;;;;9.90;6.03;;;;;;;;;;10407706;28;20061;-81
2024/01/19 15:07:16;;;;;;;9.20;5.30;;;;;;;;;;10404952;28;20041;-81
2024/01/19 15:12:21;;;;;;;6.32;4.20;;;;;;;;;;10414158;28;20490;-81
2024/01/19 15:17:24;;;;;;;9.82;5.50;;;;;;;;;;10413475;28;20050;-81
2024/01/19 15:22:28;;;;;;;9.57;5.00;;;;;;;;;;10412010;28;20045;-81
2024/01/19 15:27:33;;;;;;;9.43;4.97;;;;;;;;;;10409924;28;20045;-81
2024/01/19 15:32:36;;;;;;;9.10;4.90;;;;;;;;;;10403196;28;20079;-80
2024/01/19 15:37:40;;;;;;;7.53;5.00;;;;;;;;;;10402496;28;20056;-80
2024/01/19 15:42:45;;;;;;;11.55;5.72;;;;;;;;;;10403663;28;20045;-80
2024/01/19 15:47:48;;;;;;;12.55;6.55;;;;;;;;;;10401272;28;20049;-80
2024/01/19 15:52:55;;;;;;;10.68;6.50;;;;;;;;;;10407283;28;20103;-80
2024/01/19 15:58:00;;;;;;;10.63;5.88;;;;;;;;;;10408787;28;20052;-80
2024/01/19 16:03:04;;;;;;;12.23;6.37;;;;;;;;;;10400931;28;20065;-80
2024/01/19 16:08:08;;;;;;;13.55;6.95;;;;;;;;;;10409202;28;20053;-80
2024/01/19 16:13:13;;;;;;;11.43;6.07;;;;;;;;;;10423064;28;20482;-80
2024/01/19 16:18:16;;;;;;;12.45;6.45;;;;;;;;;;10404143;28;20100;-79
2024/01/19 16:23:20;;;;;;;9.43;5.57;;;;;;;;;;10407731;28;20680;-79
2024/01/19 16:28:25;;;;;;;10.93;6.35;;;;;;;;;;10399370;28;20049;-80
2024/01/19 16:33:29;;;;;;;12.52;6.82;;;;;;;;;;10403173;28;20041;-79
2024/01/19 16:38:32;;;;;;;11.80;6.60;;;;;;;;;;10423737;28;20057;-80
2024/01/19 16:43:38;;;;;;;10.43;5.85;;;;;;;;;;10402391;28;20041;-79
2024/01/19 16:48:43;;;;;;;10.90;6.82;;;;;;;;;;10402495;28;20530;-79
2024/01/19 16:53:46;;;;;;;17.33;9.25;;;;;;;;;;10404584;28;20065;-80
2024/01/19 16:58:51;;;;;;;15.93;8.30;;;;;;;;;;10405379;28;20045;-79
2024/01/19 17:03:55;;;;;;;14.35;9.10;;;;;;;;;;10412264;28;20058;-80
2024/01/19 17:08:58;;;;;;;12.10;8.07;;;;;;;;;;10452254;22;20072;-77
2024/01/19 17:14:06;;;;;;;11.32;6.80;;;;;;;;;;10483456;28;20072;-77
2024/01/19 17:19:12;;;;;;;11.80;6.50;;;;;;;;;;10479519;28;20056;-77
2024/01/19 17:24:15;;;;;;;11.18;6.25;;;;;;;;;;10472430;28;20040;-77
2024/01/19 17:29:20;;;;;;;10.25;6.60;;;;;;;;;;10474657;28;20410;-77
2024/01/19 17:34:24;;;;;;;10.60;5.85;;;;;;;;;;10478927;28;20112;-78
2024/01/19 17:39:29;;;;;;;11.15;6.70;;;;;;;;;;10479852;28;20052;-77
2024/01/19 17:44:35;;;;;;;12.30;6.20;;;;;;;;;;10459684;28;20059;-78
2024/01/19 17:49:39;;;;;;;12.40;6.20;;;;;;;;;;10477021;28;20453;-78
2024/01/19 17:54:44;;;;;;;16.98;9.23;;;;;;;;;;10472138;28;20055;-77
2024/01/19 17:59:49;;;;;;;16.43;8.80;;;;;;;;;;10491592;28;20047;-78
2024/01/19 18:04:53;;;;;;;16.60;8.68;;;;;;;;;;10486258;28;20506;-77
2024/01/19 18:09:57;;;;;;;18.50;8.90;;;;;;;;;;10473803;28;20048;-78
2024/01/19 18:15:02;;;;;;;17.38;9.13;;;;;;;;;;10477894;28;20060;-78
2024/01/19 18:20:06;;;;;;;16.98;9.02;;;;;;;;;;10475178;28;20041;-78
2024/01/19 18:25:13;;;;;;;16.25;7.97;;;;;;;;;;10471219;28;20529;-78
2024/01/19 18:30:18;;;;;;;17.85;8.73;;;;;;;;;;10459084;28;20561;-78
2024/01/19 18:35:21;;;;;;;19.75;10.73;;;;;;;;;;10459123;28;20049;-77
2024/01/19 18:40:25;;;;;;;20.73;9.93;;;;;;;;;;10469244;28;20127;-77
2024/01/19 18:45:30;;;;;;;17.13;8.95;;;;;;;;;;10484253;28;20354;-77
2024/01/19 18:50:33;;;;;;;18.63;9.27;;;;;;;;;;10481005;28;20060;-77
2024/01/19 18:55:37;;;;;;;17.27;9.02;;;;;;;;;;10483734;28;20135;-77
2024/01/19 19:00:42;;;;;;;19.05;10.13;;;;;;;;;;10484057;28;20036;-78
2024/01/19 19:05:48;;;;;;;20.83;10.60;;;;;;;;;;10469916;28;20041;-78
2024/01/19 19:10:51;;;;;;;16.42;9.10;;;;;;;;;;10459530;28;20139;-78
2024/01/19 19:15:56;;;;;;;15.90;9.43;;;;;;;;;;10459624;28;20048;-78
2024/01/19 19:21:00;;;;;;;17.98;8.75;;;;;;;;;;10457839;28;20207;-78
2024/01/19 19:26:11;;;;;;;15.20;8.05;;;;;;;;;;10481620;28;20052;-78
2024/01/19 19:31:16;;;;;;;17.25;8.73;;;;;;;;;;10463395;28;20055;-78
2024/01/19 19:36:19;;;;;;;22.23;10.30;;;;;;;;;;10473184;28;20049;-78
2024/01/19 19:41:23;;;;;;;18.55;9.32;;;;;;;;;;10480469;28;20044;-79
2024/01/19 19:46:28;;;;;;;19.23;9.38;;;;;;;;;;10497890;28;20037;-78
2024/01/19 19:51:35;;;;;;;17.92;9.07;;;;;;;;;;10481198;28;20055;-79
2024/01/19 19:56:39;;;;;;;20.13;10.18;;;;;;;;;;10478457;28;20056;-78
2024/01/19 20:01:47;;;;;;;21.23;9.65;;;;;;;;;;10477024;28;20064;-78
2024/01/19 20:06:51;;;;;;;17.67;9.10;;;;;;;;;;10458103;28;20096;-78
2024/01/19 20:11:57;;;;;;;14.75;7.72;;;;;;;;;;10450409;28;20040;-78
2024/01/19 20:17:06;;;;;;;15.38;8.10;;;;;;;;;;10454921;28;20045;-79
2024/01/19 20:22:10;;;;;;;19.75;9.85;;;;;;;;;;10459069;28;20044;-78
2024/01/19 20:27:13;;;;;;;13.20;7.05;;;;;;;;;;10469100;28;20053;-78
2024/01/19 20:32:18;;;;;;;15.27;7.97;;;;;;;;;;10476384;28;20453;-78
2024/01/19 20:37:32;;;;;;;20.23;9.90;;;;;;;;;;10482068;28;20075;-79
2024/01/19 20:42:39;;;;;;;18.33;9.13;;;;;;;;;;10475504;28;20135;-78
2024/01/19 20:47:44;;;;;;;19.05;8.50;;;;;;;;;;10464759;28;20118;-78
2024/01/19 20:52:48;;;;;;;24.90;9.88;;;;;;;;;;10477406;28;20136;-78
2024/01/19 20:57:52;;;;;;;19.92;9.68;;;;;;;;;;10454165;28;20553;-78
2024/01/19 21:02:57;;;;;;;21.50;10.98;;;;;;;;;;10460953;28;20131;-79
2024/01/19 21:08:00;;;;;;;18.83;9.02;;;;;;;;;;10484671;28;20052;-78
2024/01/19 21:13:05;;;;;;;15.70;7.90;;;;;;;;;;10461969;28;20053;-78
2024/01/19 21:18:10;;;;;;;14.57;8.55;;;;;;;;;;10461588;28;20047;-78
2024/01/19 21:23:13;;;;;;;11.07;7.05;;;;;;;;;;10464597;28;20049;-78
2024/01/19 21:28:19;;;;;;;16.38;8.57;;;;;;;;;;10473961;28;20045;-79
2024/01/19 21:33:24;;;;;;;13.95;7.53;;;;;;;;;;10470097;28;20084;-79
2024/01/19 21:38:28;;;;;;;17.37;8.40;;;;;;;;;;10493458;28;20048;-79
2024/01/19 21:43:32;;;;;;;19.23;9.77;;;;;;;;;;10478822;28;20292;-79
2024/01/19 21:48:38;;;;;;;17.02;8.85;;;;;;;;;;10476968;28;20077;-79
2024/01/19 21:53:43;;;;;;;;;;;;;;;;;;10481463;28;20061;-78
2024/01/19 21:58:47;;;;;;;13.50;5.95;;;;;;;;;;10487321;28;19921;-79
2024/01/19 22:03:53;;;;;;;12.45;7.07;;;;;;;;;;10488007;28;20048;-79
2024/01/19 22:08:57;;;;;;;15.63;7.45;;;;;;;;;;10464692;28;20045;-79
2024/01/19 22:14:01;;;;;;;16.58;9.10;;;;;;;;;;10462889;28;20045;-78
2024/01/19 22:19:06;;;;;;;18.77;9.32;;;;;;;;;;10479709;28;20040;-79
2024/01/19 22:24:09;;;;;;;16.80;8.07;;;;;;;;;;10457082;28;20052;-79
2024/01/19 22:29:13;;;;;;;14.20;6.82;;;;;;;;;;10462115;28;20053;-78
2024/01/19 22:34:18;;;;;;;15.82;7.32;;;;;;;;;;10465955;28;20045;-79
2024/01/19 22:39:22;;;;;;;12.68;7.35;;;;;;;;;;10478227;28;20041;-79
2024/01/19 22:44:28;;;;;;;16.85;8.65;;;;;;;;;;10459031;28;20136;-78
2024/01/19 22:49:33;;;;;;;19.23;9.73;;;;;;;;;;10483470;28;20045;-78
2024/01/19 22:54:37;;;;;;;19.77;9.10;;;;;;;;;;10457284;28;20052;-79
2024/01/19 22:59:41;;;;;;;19.17;9.35;;;;;;;;;;10461995;28;20509;-79
2024/01/19 23:04:46;;;;;;;21.52;11.02;;;;;;;;;;10467785;28;20739;-79
2024/01/19 23:09:49;;;;;;;23.83;11.85;;;;;;;;;;10668287;22;20088;-87
2024/01/19 23:14:53;;;;;;;22.50;11.38;;;;;;;;;;10464451;28;20044;-88
2024/01/19 23:19:57;;;;;;;27.08;12.95;;;;;;;;;;10488220;28;20052;-88
2024/01/19 23:25:01;;;;;;;25.37;11.77;;;;;;;;;;10460302;28;20048;-88
2024/01/19 23:30:06;;;;;;;25.25;12.00;;;;;;;;;;10454106;28;20619;-88
2024/01/19 23:35:11;;;;;;;23.47;11.13;;;;;;;;;;10452680;28;20091;-88
2024/01/19 23:40:15;;;;;;;22.50;10.73;;;;;;;;;;10462851;28;20048;-88
2024/01/19 23:45:20;;;;;;;16.38;9.15;;;;;;;;;;10463122;28;20666;-87
2024/01/19 23:50:25;;;;;;;18.40;10.10;;;;;;;;;;10457587;28;20048;-87
2024/01/19 23:55:29;;;;;;;17.85;8.85;;;;;;;;;;10454543;28;20068;-87
